Time;durP1;ratioP1;P1;durP2;ratioP2;P2;SDS_P1;SDS_P2;PMS_P1;PMS_P2;Temp;Humidity;BMP_temperature;BMP_pressure;BME280_temperature;BME280_humidity;BME280_pressure;Samples;Min_cycle;Max_cycle;Signal;HPM_P1;HPM_P2
2022/07/10 00:01:21;;;;;;;;;;;;;;;22.74;72.88;99925.94;6242676;23;20304;-75
2022/07/10 00:03:49;;;;;;;;;;;;;;;22.73;71.38;99916.25;6242311;23;19973;-75
2022/07/10 00:06:15;;;;;;;;;;;;;;;22.69;72.34;99907.72;6245137;23;19915;-75
2022/07/10 00:08:42;;;;;;;;;;;;;;;22.65;71.77;99914.56;6245592;23;19956;-74
2022/07/10 00:11:08;;;;;;;;;;;;;;;22.50;72.87;99918.56;6244844;23;20002;-75
2022/07/10 00:13:34;;;;;;;;;;;;;;;22.43;73.93;99914.03;6244857;23;20277;-75
2022/07/10 00:19:27;;;;;;;;;;;;;;;22.47;74.28;99903.66;6245357;23;19958;-73
2022/07/10 00:21:53;;;;;;;;;;;;;;;22.48;74.03;99905.31;6244937;23;19911;-74
2022/07/10 00:24:18;;;;;;;;;;;;;;;22.52;74.72;99911.09;6244955;23;19940;-75
2022/07/10 00:26:43;;;;;;;;;;;;;;;22.51;74.98;99910.25;6243984;23;19912;-74
2022/07/10 00:29:09;;;;;;;;;;;;;;;22.50;74.24;99902.44;6244733;23;20022;-75
2022/07/10 00:31:34;;;;;;;;;;;;;;;22.52;75.23;99905.72;6245233;23;19908;-74
2022/07/10 00:34:00;;;;;;;;;;;;;;;22.54;75.04;99906.34;6244023;23;19986;-75
2022/07/10 00:36:25;;;;;;;;;;;;;;;22.55;74.10;99905.31;6218694;23;19946;-74
2022/07/10 00:38:51;;;;;;;;;;;;;;;22.52;75.00;99916.47;6244691;23;19907;-75
2022/07/10 00:41:16;;;;;;;;;;;;;;;22.46;75.13;99910.91;6244787;23;19918;-74
2022/07/10 00:43:52;;;;;;;;;;;;;;;22.40;75.92;99909.06;6244096;23;20022;-75
2022/07/10 00:46:20;;;;;;;;;;;;;;;22.31;78.23;99898.75;6245198;23;19919;-74
2022/07/10 00:48:46;;;;;;;;;;;;;;;22.17;78.09;99897.94;6245020;23;20360;-74
2022/07/10 00:51:11;;;;;;;;;;;;;;;21.93;79.97;99898.56;6243176;23;19914;-73
2022/07/10 00:53:37;;;;;;;;;;;;;;;21.88;81.91;99892.97;6242817;23;19958;-73
2022/07/10 00:56:03;;;;;;;;;;;;;;;21.86;81.46;99884.28;6242337;23;19922;-74
2022/07/10 00:58:28;;;;;;;;;;;;;;;21.90;81.63;99885.53;6241810;23;20335;-74
2022/07/10 01:00:54;;;;;;;;;;;;;;;21.90;81.25;99890.91;6241873;23;19926;-73
2022/07/10 01:03:19;;;;;;;;;;;;;;;21.86;81.53;99885.13;6242065;23;19986;-73
2022/07/10 01:05:45;;;;;;;;;;;;;;;21.87;81.62;99891.31;6242028;23;19938;-74
2022/07/10 01:08:10;;;;;;;;;;;;;;;21.85;81.77;99885.34;6242053;23;19912;-73
2022/07/10 01:10:37;;;;;;;;;;;;;;;21.83;82.19;99887.41;6242301;23;19942;-74
2022/07/10 01:13:03;;;;;;;;;;;;;;;21.76;82.08;99883.88;6241957;23;20610;-74
2022/07/10 01:15:29;;;;;;;;;;;;;;;21.73;82.35;99885.16;6242261;23;19926;-74
2022/07/10 01:17:55;;;;;;;;;;;;;;;21.66;82.20;99878.94;6241307;23;19912;-74
2022/07/10 01:20:29;;;;;;;;;;;;;;;21.60;83.71;99891.34;6242198;23;19911;-74
2022/07/10 01:22:55;;;;;;;;;;;;;;;21.62;82.35;99883.03;6241933;23;20225;-74
2022/07/10 01:25:20;;;;;;;;;;;;;;;21.63;84.72;99890.91;6242393;23;19914;-74
2022/07/10 01:27:45;;;;;;;;;;;;;;;21.67;82.63;99890.50;6241231;23;19956;-74
2022/07/10 01:30:11;;;;;;;;;;;;;;;21.68;82.98;99886.78;6241413;23;19911;-74
2022/07/10 01:32:38;;;;;;;;;;;;;;;21.69;82.72;99883.06;6241474;23;19907;-74
2022/07/10 01:35:03;;;;;;;;;;;;;;;21.72;84.35;99888.03;6215289;23;19969;-74
2022/07/10 01:37:29;;;;;;;;;;;;;;;21.70;83.23;99887.41;6241750;23;19915;-76
2022/07/10 01:39:54;;;;;;;;;;;;;;;21.57;83.29;99880.16;6214641;23;20345;-73
2022/07/10 01:42:19;;;;;;;;;;;;;;;21.49;85.52;99883.91;6242336;23;19915;-73
2022/07/10 01:44:45;;;;;;;;;;;;;;;21.44;85.11;99886.34;6241696;23;19950;-75
2022/07/10 01:47:11;;;;;;;;;;;;;;;21.40;85.09;99890.47;6241320;23;19915;-73
2022/07/10 01:49:37;;;;;;;;;;;;;;;21.30;88.74;99884.69;6241609;23;19911;-74
2022/07/10 01:52:03;;;;;;;;;;;;;;;21.29;86.28;99887.56;6240934;23;20648;-74
2022/07/10 01:54:28;;;;;;;;;;;;;;;21.29;86.03;99887.56;6242315;23;19911;-73
2022/07/10 01:56:54;;;;;;;;;;;;;;;21.31;84.91;99885.50;6241515;23;19916;-73
2022/07/10 01:59:19;;;;;;;;;;;;;;;21.36;84.86;99878.50;6242017;23;19926;-74
2022/07/10 02:01:45;;;;;;;;;;;;;;;21.35;83.88;99881.38;6241894;23;20030;-74
2022/07/10 02:06:55;;;;;;;;;;;;;;;21.34;83.83;99880.56;6241488;23;20358;-74
2022/07/10 02:09:20;;;;;;;;;;;;;;;21.29;84.33;99883.03;6241909;23;19915;-74
2022/07/10 02:11:45;;;;;;;;;;;;;;;21.24;83.28;99880.97;6241879;23;19918;-74
2022/07/10 02:14:11;;;;;;;;;;;;;;;21.30;84.78;99882.00;6241790;23;19911;-74
2022/07/10 02:16:37;;;;;;;;;;;;;;;21.26;84.59;99883.44;6241807;23;19911;-74
2022/07/10 02:19:03;;;;;;;;;;;;;;;21.27;86.38;99879.72;6240249;23;19911;-74
2022/07/10 02:21:28;;;;;;;;;;;;;;;21.28;85.36;99881.38;6241695;23;20244;-75
2022/07/10 02:23:54;;;;;;;;;;;;;;;21.30;85.69;99879.31;6241037;23;19964;-74
2022/07/10 02:26:19;;;;;;;;;;;;;;;21.32;86.84;99877.25;6241658;23;20014;-75
2022/07/10 02:28:45;;;;;;;;;;;;;;;21.33;85.79;99876.22;6214271;23;19911;-74
2022/07/10 02:31:10;;;;;;;;;;;;;;;21.31;85.77;99875.59;6241309;23;19946;-74
2022/07/10 02:33:36;;;;;;;;;;;;;;;21.31;85.19;99875.59;6240809;23;19914;-74
2022/07/10 02:36:02;;;;;;;;;;;;;;;21.24;85.02;99870.22;6240351;23;19957;-74
2022/07/10 02:38:27;;;;;;;;;;;;;;;21.22;84.80;99872.28;6240979;23;19918;-75
2022/07/10 02:40:53;;;;;;;;;;;;;;;21.17;84.67;99873.91;6241218;23;19919;-74
2022/07/10 02:43:18;;;;;;;;;;;;;;;21.09;84.81;99871.38;6245676;23;19912;-74
2022/07/10 02:45:44;;;;;;;;;;;;;;;21.07;85.92;99879.66;6245142;23;19912;-75
2022/07/10 02:48:09;;;;;;;;;;;;;;;21.09;85.68;99872.22;6239967;23;19981;-74
2022/07/10 02:50:35;;;;;;;;;;;;;;;21.11;85.51;99874.69;6242098;23;19919;-74
2022/07/10 02:53:00;;;;;;;;;;;;;;;21.12;85.41;99873.66;6242836;23;19915;-74
2022/07/10 02:55:26;;;;;;;;;;;;;;;21.13;86.26;99873.47;6243007;23;19911;-74
2022/07/10 02:57:51;;;;;;;;;;;;;;;21.15;86.18;99876.78;6242477;23;19942;-73
2022/07/10 03:00:17;;;;;;;;;;;;;;;21.15;84.97;99881.34;6243081;23;20231;-74
2022/07/10 03:02:42;;;;;;;;;;;;;;;21.11;84.56;99880.06;6243445;23;19911;-74
2022/07/10 03:05:08;;;;;;;;;;;;;;;20.96;85.39;99882.09;6241999;23;19915;-74
2022/07/10 03:07:33;;;;;;;;;;;;;;;20.85;86.52;99881.63;6242308;23;19942;-74
2022/07/10 03:09:59;;;;;;;;;;;;;;;20.72;87.67;99884.28;6242168;23;19907;-74
2022/07/10 03:12:24;;;;;;;;;;;;;;;20.54;88.18;99884.00;6243063;23;19911;-74
2022/07/10 03:14:50;;;;;;;;;;;;;;;20.44;89.15;99884.34;6242505;23;19912;-74
2022/07/10 03:17:15;;;;;;;;;;;;;;;20.35;90.40;99884.72;6242202;23;19934;-72
2022/07/10 03:19:40;;;;;;;;;;;;;;;20.26;91.07;99888.56;6242601;23;19912;-74
2022/07/10 03:22:06;;;;;;;;;;;;;;;20.25;90.74;99884.22;6242068;23;20250;-74
2022/07/10 03:24:31;;;;;;;;;;;;;;;20.26;90.98;99886.69;6242005;23;19964;-75
2022/07/10 03:26:57;;;;;;;;;;;;;;;20.28;91.53;99891.84;6241536;23;19947;-73
2022/07/10 03:32:50;;;;;;;;;;;;;;;20.46;91.04;99886.81;6240251;23;19973;-74
2022/07/10 03:35:16;;;;;;;;;;;;;;;20.47;91.39;99887.66;6241547;23;19916;-73
2022/07/10 03:37:42;;;;;;;;;;;;;;;20.46;91.39;99881.47;6241608;23;19911;-74
2022/07/10 03:40:08;;;;;;;;;;;;;;;20.40;91.75;99884.94;6214685;23;20391;-74
2022/07/10 03:46:14;;;;;;;;;;;;;;;20.31;91.44;99888.78;6211628;23;19922;-73
2022/07/10 03:48:40;;;;;;;;;;;;;;;20.32;92.74;99891.28;6210933;23;20337;-74
2022/07/10 03:51:05;;;;;;;;;;;;;;;20.26;91.71;99878.63;6184718;23;19962;-74
2022/07/10 03:53:34;;;;;;;;;;;;;;;20.31;91.90;99886.09;6211106;23;19912;-74
2022/07/10 03:56:00;;;;;;;;;;;;;;;20.36;91.62;99897.09;6210836;23;19908;-74
2022/07/10 03:58:27;;;;;;;;;;;;;;;20.40;92.73;99887.63;6184639;23;19916;-74
2022/07/10 04:00:53;;;;;;;;;;;;;;;20.45;92.68;99895.91;6210625;23;19912;-73
2022/07/10 04:03:18;;;;;;;;;;;;;;;20.46;92.98;99894.88;6210850;23;19966;-74
2022/07/10 04:05:44;;;;;;;;;;;;;;;20.46;92.56;99886.81;6211336;23;19918;-74
2022/07/10 04:08:09;;;;;;;;;;;;;;;20.47;91.26;99893.03;6184551;23;19919;-74
2022/07/10 04:10:36;;;;;;;;;;;;;;;20.49;91.58;99901.69;6211747;23;19916;-74
2022/07/10 04:13:01;;;;;;;;;;;;;;;20.46;91.53;99897.56;6211091;23;19923;-74
2022/07/10 04:15:27;;;;;;;;;;;;;;;20.28;93.71;99902.56;6211883;23;20249;-74
2022/07/10 04:17:52;;;;;;;;;;;;;;;20.24;94.07;99901.31;6210744;23;19914;-73
2022/07/10 04:20:18;;;;;;;;;;;;;;;20.18;94.52;99894.06;6211701;23;19912;-74
2022/07/10 04:22:44;;;;;;;;;;;;;;;19.98;96.11;99897.41;6211845;23;19987;-74
2022/07/10 04:25:10;;;;;;;;;;;;;;;20.01;96.12;99899.72;6211667;23;19996;-74
2022/07/10 04:27:35;;;;;;;;;;;;;;;20.06;96.05;99900.97;6211783;23;19915;-73
2022/07/10 04:30:01;;;;;;;;;;;;;;;20.08;95.92;99894.41;6211450;23;19918;-73
2022/07/10 04:32:27;;;;;;;;;;;;;;;20.13;95.82;99902.69;6211828;23;19904;-73
2022/07/10 04:34:53;;;;;;;;;;;;;;;20.15;95.62;99894.44;6210908;23;19923;-72
2022/07/10 04:37:19;;;;;;;;;;;;;;;20.13;95.73;99901.88;6211594;23;19935;-74
2022/07/10 04:39:44;;;;;;;;;;;;;;;20.02;96.53;99901.38;6211443;23;19975;-75
2022/07/10 04:42:09;;;;;;;;;;;;;;;19.93;96.09;99894.50;6211397;23;19920;-75
2022/07/10 04:44:38;;;;;;;;;;;;;;;19.82;97.26;99895.03;6224182;23;19987;-75
2022/07/10 04:47:04;;;;;;;;;;;;;;;19.73;97.73;99906.94;6240864;23;19938;-76
2022/07/10 04:49:30;;;;;;;;;;;;;;;19.77;97.64;99902.84;6240715;23;19923;-74
2022/07/10 04:51:56;;;;;;;;;;;;;;;19.79;97.85;99899.97;6240766;23;20078;-75
2022/07/10 04:54:21;;;;;;;;;;;;;;;19.87;97.01;99894.44;6241515;23;19907;-74
2022/07/10 04:56:47;;;;;;;;;;;;;;;19.92;96.88;99900.88;6241078;23;19931;-74
2022/07/10 04:59:12;;;;;;;;;;;;;;;19.99;95.80;99899.09;6241517;23;19998;-74
2022/07/10 05:01:38;;;;;;;;;;;;;;;19.96;95.72;99901.34;6241687;23;19918;-74
2022/07/10 05:04:04;;;;;;;;;;;;;;;19.85;96.20;99899.19;6240885;23;19922;-74
2022/07/10 05:06:29;;;;;;;;;;;;;;;19.79;97.19;99894.63;6215524;23;19907;-75
2022/07/10 05:08:55;;;;;;;;;;;;;;;19.82;97.27;99881.66;6244683;23;19918;-75
2022/07/10 05:11:21;;;;;;;;;;;;;;;19.81;97.08;99885.34;6250296;23;19923;-75
2022/07/10 05:13:48;;;;;;;;;;;;;;;19.86;97.40;99890.13;6241589;23;19915;-75
2022/07/10 05:16:14;;;;;;;;;;;;;;;19.85;97.28;99888.47;6241650;23;20237;-75
2022/07/10 05:18:39;;;;;;;;;;;;;;;19.98;97.28;99889.38;6241385;23;19947;-75
2022/07/10 05:21:05;;;;;;;;;;;;;;;20.03;97.33;99886.94;6241211;23;19943;-75
2022/07/10 05:23:31;;;;;;;;;;;;;;;19.95;96.70;99889.78;6241681;23;19954;-76
2022/07/10 05:25:56;;;;;;;;;;;;;;;19.98;96.72;99888.56;6241224;23;19911;-76
2022/07/10 05:28:22;;;;;;;;;;;;;;;19.94;97.28;99885.44;6241884;23;19915;-76
2022/07/10 05:30:48;;;;;;;;;;;;;;;20.04;98.03;99888.59;6241388;23;19919;-76
2022/07/10 05:33:17;;;;;;;;;;;;;;;20.12;97.41;99889.50;6240928;23;20351;-75
2022/07/10 05:35:42;;;;;;;;;;;;;;;20.01;96.97;99886.34;6241388;23;19989;-75
2022/07/10 05:38:08;;;;;;;;;;;;;;;20.08;97.12;99889.06;6214301;23;19920;-76
2022/07/10 05:40:33;;;;;;;;;;;;;;;20.12;97.17;99889.50;6214568;23;19919;-75
2022/07/10 05:42:59;;;;;;;;;;;;;;;20.22;97.49;99884.59;6240773;23;19911;-76
2022/07/10 05:45:24;;;;;;;;;;;;;;;20.36;97.72;99894.41;6240880;23;19912;-76
2022/07/10 05:47:50;;;;;;;;;;;;;;;20.48;96.10;99898.19;6240552;23;19915;-75
2022/07/10 05:50:16;;;;;;;;;;;;;;;20.59;95.32;99886.91;6213482;23;19998;-75
2022/07/10 05:52:42;;;;;;;;;;;;;;;20.64;95.83;99889.81;6240571;23;19918;-75
2022/07/10 05:55:07;;;;;;;;;;;;;;;20.73;96.34;99883.25;6240562;23;19912;-75
2022/07/10 05:57:33;;;;;;;;;;;;;;;20.79;94.26;99885.13;6240636;23;19979;-76
2022/07/10 05:59:59;;;;;;;;;;;;;;;20.85;94.48;99886.19;6240147;23;19912;-76
2022/07/10 06:02:24;;;;;;;;;;;;;;;20.94;93.87;99894.88;6214625;23;20015;-75
2022/07/10 06:04:50;;;;;;;;;;;;;;;21.05;94.26;99899.66;6213621;23;19922;-75
2022/07/10 06:07:16;;;;;;;;;;;;;;;21.16;94.52;99896.41;6240611;23;19939;-75
2022/07/10 06:09:41;;;;;;;;;;;;;;;21.24;93.37;99888.19;6214271;23;19919;-75
2022/07/10 06:22:53;;;;;;;;;;;;;;;21.55;90.48;99885.75;6239624;23;19922;-75
2022/07/10 06:25:19;;;;;;;;;;;;;;;21.64;88.35;99881.81;6239107;23;19923;-73
2022/07/10 06:27:44;;;;;;;;;;;;;;;21.68;87.54;99886.78;6241204;23;19907;-74
2022/07/10 06:33:38;;;;;;;;;;;;;;;21.91;87.11;99887.19;6239752;23;19919;-75
2022/07/10 06:36:03;;;;;;;;;;;;;;;22.01;85.94;99887.63;6240415;23;20244;-74
2022/07/10 06:38:29;;;;;;;;;;;;;;;22.11;85.54;99888.03;6240747;23;19911;-75
2022/07/10 06:40:54;;;;;;;;;;;;;;;22.19;83.90;99886.97;6240721;23;19911;-74
2022/07/10 06:43:19;;;;;;;;;;;;;;;22.24;82.20;99888.00;6240641;23;19912;-74
2022/07/10 06:45:45;;;;;;;;;;;;;;;22.31;81.96;99888.81;6240045;23;20034;-75
2022/07/10 06:48:11;;;;;;;;;;;;;;;22.38;80.04;99894.19;6212902;23;20293;-75
2022/07/10 06:50:37;;;;;;;;;;;;;;;22.45;79.61;99887.72;6239932;23;19954;-75
2022/07/10 06:53:03;;;;;;;;;;;;;;;22.50;78.49;99897.06;6238520;23;19982;-76
2022/07/10 06:55:29;;;;;;;;;;;;;;;22.54;77.61;99887.50;6241693;23;20222;-76
2022/07/10 06:57:55;;;;;;;;;;;;;;;22.61;78.44;99878.38;6243959;23;19918;-76
2022/07/10 07:00:23;;;;;;;;;;;;;;;22.67;77.00;99876.72;6242979;23;19915;-73
2022/07/10 07:02:49;;;;;;;;;;;;;;;22.68;77.38;99883.75;6242386;23;19985;-73
2022/07/10 07:05:14;;;;;;;;;;;;;;;22.68;77.64;99881.06;6217301;23;19912;-73
2022/07/10 07:07:40;;;;;;;;;;;;;;;22.68;78.04;99878.38;6247157;23;19926;-73
2022/07/10 07:10:06;;;;;;;;;;;;;;;22.74;78.10;99872.13;6244134;23;19975;-73
2022/07/10 07:12:32;;;;;;;;;;;;;;;22.79;78.34;99870.47;6243537;23;19911;-73
2022/07/10 07:14:57;;;;;;;;;;;;;;;22.82;76.25;99863.84;6243187;23;19914;-74
2022/07/10 07:17:25;;;;;;;;;;;;;;;22.82;76.08;99871.91;6242092;23;19919;-74
2022/07/10 07:25:22;;;;;;;;;;;;;;;22.98;73.74;99863.31;6243684;23;19986;-72
2022/07/10 07:27:47;;;;;;;;;;;;;;;22.95;74.37;99869.16;6243442;23;20209;-73
2022/07/10 07:30:16;;;;;;;;;;;;;;;23.02;74.00;99859.19;6243093;23;19911;-75
2022/07/10 07:32:43;;;;;;;;;;;;;;;23.13;74.12;99852.28;6244542;23;19922;-76
2022/07/10 07:35:09;;;;;;;;;;;;;;;23.22;73.23;99848.28;6245447;23;19915;-77
2022/07/10 07:37:44;;;;;;;;;;;;;;;23.31;73.13;99852.38;6245415;23;19911;-75
2022/07/10 07:40:14;;;;;;;;;;;;;;;23.41;72.11;99851.88;6242240;23;20363;-76
2022/07/10 07:42:40;;;;;;;;;;;;;;;23.44;71.68;99848.75;6240815;23;19934;-76
2022/07/10 07:45:06;;;;;;;;;;;;;;;23.50;72.83;99850.59;6240126;23;19916;-72
2022/07/10 07:47:42;;;;;;;;;;;;;;;23.61;72.29;99848.03;6242590;23;19911;-75
2022/07/10 07:50:07;;;;;;;;;;;;;;;23.71;71.79;99844.81;6241870;23;20229;-75
2022/07/10 07:52:35;;;;;;;;;;;;;;;23.81;70.97;99841.63;6242333;23;19990;-75
2022/07/10 07:55:00;;;;;;;;;;;;;;;23.90;73.25;99835.75;6240371;23;20249;-75
2022/07/10 07:57:26;;;;;;;;;;;;;;;23.98;68.62;99842.69;6242448;23;19995;-74
2022/07/10 07:59:51;;;;;;;;;;;;;;;24.00;66.98;99838.75;6215361;23;19912;-76
2022/07/10 08:02:17;;;;;;;;;;;;;;;24.01;68.35;99832.31;6241632;23;19943;-75
2022/07/10 08:04:42;;;;;;;;;;;;;;;24.09;68.57;99839.28;6240031;23;19982;-75
2022/07/10 08:07:11;;;;;;;;;;;;;;;24.17;68.01;99836.28;6241466;23;19915;-75
2022/07/10 08:09:36;;;;;;;;;;;;;;;24.24;70.08;99837.06;6242198;23;19911;-75
2022/07/10 08:12:05;;;;;;;;;;;;;;;24.33;68.28;99830.31;6241927;23;19935;-75
2022/07/10 08:14:30;;;;;;;;;;;;;;;24.42;66.51;99828.16;6242356;23;19978;-75
2022/07/10 08:16:55;;;;;;;;;;;;;;;24.50;65.96;99835.94;6241738;23;20329;-75
2022/07/10 08:19:21;;;;;;;;;;;;;;;24.59;65.47;99829.19;6241006;23;19986;-75
2022/07/10 08:21:46;;;;;;;;;;;;;;;24.68;64.76;99832.41;6241932;23;19918;-74
2022/07/10 08:24:12;;;;;;;;;;;;;;;24.72;64.26;99829.00;6242329;23;19921;-76
2022/07/10 08:26:37;;;;;;;;;;;;;;;24.77;64.49;99825.63;6242144;23;19908;-75
2022/07/10 08:29:02;;;;;;;;;;;;;;;24.81;62.85;99816.84;6240090;23;19911;-75
2022/07/10 08:31:28;;;;;;;;;;;;;;;24.84;63.07;99821.78;6242336;23;19923;-75
2022/07/10 08:34:31;;;;;;;;;;;;;;;24.88;62.77;99811.34;6241132;23;19911;-75
2022/07/10 08:37:15;;;;;;;;;;;;;;;24.95;63.10;99811.28;6241328;23;19982;-76
2022/07/10 08:42:51;;;;;;;;;;;;;;;25.11;61.14;99811.44;6241630;23;19915;-75
2022/07/10 08:45:18;;;;;;;;;;;;;;;25.17;61.59;99807.00;6242190;23;20190;-75
2022/07/10 08:47:44;;;;;;;;;;;;;;;25.21;59.69;99800.09;6241453;23;20325;-74
2022/07/10 08:50:23;;;;;;;;;;;;;;;25.29;59.27;99799.75;6241511;23;19919;-76
2022/07/10 08:53:07;;;;;;;;;;;;;;;25.36;59.96;99797.78;6241664;23;19911;-75
2022/07/10 08:55:33;;;;;;;;;;;;;;;25.42;58.42;99796.84;6241964;23;19982;-75
2022/07/10 08:57:59;;;;;;;;;;;;;;;25.45;59.72;99796.34;6241834;23;19946;-76
2022/07/10 09:00:24;;;;;;;;;;;;;;;25.48;58.84;99790.50;6242147;23;19918;-75
2022/07/10 09:02:50;;;;;;;;;;;;;;;25.51;59.01;99792.72;6241804;23;19927;-75
2022/07/10 09:05:15;;;;;;;;;;;;;;;25.55;60.25;99791.22;6241500;23;20193;-74
2022/07/10 09:07:43;;;;;;;;;;;;;;;25.63;57.79;99792.75;6241729;23;20002;-74
2022/07/10 09:10:09;;;;;;;;;;;;;;;25.66;58.27;99792.31;6241652;23;19995;-74
2022/07/10 09:12:53;;;;;;;;;;;;;;;25.71;57.75;99788.88;6213774;23;20240;-74
2022/07/10 09:15:20;;;;;;;;;;;;;;;25.72;57.59;99785.97;6241691;23;19990;-74
2022/07/10 09:17:50;;;;;;;;;;;;;;;25.76;57.81;99783.59;6241923;23;20344;-75
2022/07/10 09:20:29;;;;;;;;;;;;;;;25.80;57.92;99779.38;6241453;23;20256;-74
2022/07/10 09:22:58;;;;;;;;;;;;;;;25.84;56.50;99778.66;6241453;23;19911;-74
2022/07/10 09:25:31;;;;;;;;;;;;;;;25.90;56.74;99774.19;6241771;23;20211;-74
2022/07/10 09:27:58;;;;;;;;;;;;;;;25.94;56.79;99773.47;6241428;23;19922;-75
2022/07/10 09:30:37;;;;;;;;;;;;;;;26.00;56.86;99766.28;6242201;23;19911;-74
2022/07/10 09:33:30;;;;;;;;;;;;;;;26.10;57.14;99761.09;6215204;23;19965;-74
2022/07/10 09:36:04;;;;;;;;;;;;;;;26.16;57.81;99760.13;6241346;23;20284;-75
2022/07/10 09:39:01;;;;;;;;;;;;;;;26.24;57.86;99767.09;6241779;23;19915;-75
2022/07/10 09:41:27;;;;;;;;;;;;;;;26.35;55.24;99758.94;6240247;23;19934;-74
2022/07/10 09:43:55;;;;;;;;;;;;;;;26.42;55.11;99759.63;6240110;23;20366;-75
2022/07/10 09:46:22;;;;;;;;;;;;;;;26.44;57.58;99754.81;6242123;23;19980;-75
2022/07/10 09:48:48;;;;;;;;;;;;;;;26.48;55.55;99758.69;6240895;23;20221;-74
2022/07/10 09:51:13;;;;;;;;;;;;;;;26.53;54.76;99749.81;6241064;23;19918;-74
2022/07/10 09:53:42;;;;;;;;;;;;;;;26.55;54.11;99738.75;6243143;23;20344;-74
2022/07/10 09:56:08;;;;;;;;;;;;;;;26.54;55.04;99750.66;6242418;23;19982;-74
2022/07/10 09:58:35;;;;;;;;;;;;;;;26.60;54.61;99733.44;6244408;23;19938;-74
2022/07/10 10:01:02;;;;;;;;;;;;;;;26.66;53.33;99737.88;6217397;23;20514;-74
2022/07/10 10:03:32;;;;;;;;;;;;;;;26.72;53.32;99736.91;6242224;23;19950;-74
2022/07/10 10:06:16;;;;;;;;;;;;;;;26.75;52.58;99725.59;6241805;23;20369;-74
2022/07/10 10:08:51;;;;;;;;;;;;;;;26.80;52.89;99723.00;6243575;23;20218;-74
2022/07/10 10:11:21;;;;;;;;;;;;;;;26.83;54.03;99727.91;6244291;23;19990;-74
2022/07/10 10:13:46;;;;;;;;;;;;;;;26.93;52.73;99733.53;6243389;23;20232;-74
2022/07/10 10:16:12;;;;;;;;;;;;;;;27.01;51.48;99735.84;6243976;23;19911;-74
2022/07/10 10:20:36;;;;;;;;;;;;;;;26.99;51.41;99727.13;6243742;23;19908;-74
2022/07/10 10:21:23;;;;;;;;;;;;;;;26.99;49.23;99724.41;6243524;23;19912;-74
2022/07/10 10:23:49;;;;;;;;;;;;;;;27.03;46.94;99720.16;6216115;23;19903;-73
2022/07/10 10:26:14;;;;;;;;;;;;;;;27.01;47.69;99725.00;6244344;23;20329;-74
2022/07/10 10:28:40;;;;;;;;;;;;;;;27.07;46.78;99713.19;6242118;23;19926;-74
2022/07/10 10:31:08;;;;;;;;;;;;;;;27.22;45.96;99721.53;6241544;23;19915;-75
2022/07/10 10:33:34;;;;;;;;;;;;;;;27.27;46.47;99713.50;6241971;23;20296;-75
2022/07/10 10:36:00;;;;;;;;;;;;;;;27.27;45.29;99708.06;6215025;23;20236;-74
2022/07/10 10:38:44;;;;;;;;;;;;;;;27.24;43.65;99705.88;6242099;23;20290;-76
2022/07/10 10:44:38;;;;;;;;;;;;;;;27.26;43.19;99701.03;6237662;23;19930;-75
2022/07/10 10:47:08;;;;;;;;;;;;;;;27.33;42.99;99705.47;6241333;23;20287;-74
2022/07/10 10:49:51;;;;;;;;;;;;;;;27.46;42.07;99694.25;6241475;23;20232;-73
2022/07/10 10:52:17;;;;;;;;;;;;;;;27.62;43.66;99698.88;6240182;23;20264;-75
2022/07/10 10:54:55;;;;;;;;;;;;;;;27.72;41.66;99684.63;6241939;23;20162;-75
2022/07/10 10:57:21;;;;;;;;;;;;;;;27.74;39.60;99680.59;6241006;23;19927;-75
2022/07/10 10:59:54;;;;;;;;;;;;;;;27.73;36.87;99678.97;6241830;23;19908;-75
2022/07/10 11:02:26;;;;;;;;;;;;;;;27.79;37.57;99671.72;6241870;23;20290;-75
2022/07/10 11:05:17;;;;;;;;;;;;;;;27.86;36.96;99673.16;6214785;23;19914;-75
2022/07/10 11:07:56;;;;;;;;;;;;;;;27.94;36.93;99671.88;6241795;23;19922;-73
2022/07/10 11:10:30;;;;;;;;;;;;;;;27.97;33.28;99664.06;6241901;23;19922;-75
2022/07/10 11:13:02;;;;;;;;;;;;;;;28.00;33.34;99663.56;6243246;23;20272;-75
2022/07/10 11:15:32;;;;;;;;;;;;;;;28.06;34.09;99662.53;6244089;23;19916;-75
2022/07/10 11:18:18;;;;;;;;;;;;;;;28.08;34.80;99663.13;6243318;23;19911;-76
2022/07/10 11:20:46;;;;;;;;;;;;;;;28.11;35.60;99654.44;6242997;23;19912;-76
2022/07/10 11:23:27;;;;;;;;;;;;;;;28.13;36.35;99645.25;6216879;23;19943;-75
2022/07/10 11:28:55;;;;;;;;;;;;;;;28.35;34.83;99637.91;6235986;23;19912;-74
2022/07/10 11:31:21;;;;;;;;;;;;;;;28.48;34.48;99632.06;6243544;23;19923;-75
2022/07/10 11:33:49;;;;;;;;;;;;;;;28.56;34.41;99634.31;6243558;23;19912;-74
2022/07/10 11:36:18;;;;;;;;;;;;;;;28.66;33.51;99631.69;6243771;23;20050;-76
2022/07/10 11:38:44;;;;;;;;;;;;;;;28.78;32.98;99620.69;6244133;23;19943;-76
2022/07/10 11:41:17;;;;;;;;;;;;;;;28.92;32.32;99628.09;6243503;23;20229;-75
2022/07/10 11:43:50;;;;;;;;;;;;;;;28.97;32.15;99621.09;6216709;23;20253;-74
2022/07/10 11:46:16;;;;;;;;;;;;;;;29.04;33.25;99618.97;6243254;23;19958;-75
2022/07/10 11:48:42;;;;;;;;;;;;;;;29.07;33.63;99618.44;6242610;23;19918;-76
2022/07/10 11:51:16;;;;;;;;;;;;;;;29.09;32.53;99606.25;6243127;23;19912;-75
2022/07/10 11:53:52;;;;;;;;;;;;;;;29.10;31.94;99612.50;6243402;23;19929;-75
2022/07/10 11:56:20;;;;;;;;;;;;;;;29.11;31.66;99614.09;6242604;23;19911;-75
2022/07/10 11:58:59;;;;;;;;;;;;;;;29.12;32.20;99611.13;6242405;23;19911;-74
2022/07/10 12:01:26;;;;;;;;;;;;;;;29.15;31.66;99604.38;6242349;23;20310;-75
2022/07/10 12:04:02;;;;;;;;;;;;;;;29.20;30.42;99601.69;6241543;23;20049;-76
2022/07/10 12:06:28;;;;;;;;;;;;;;;29.25;30.77;99601.69;6242406;23;19911;-75
2022/07/10 12:08:54;;;;;;;;;;;;;;;29.38;30.25;99593.13;6241762;23;19922;-75
2022/07/10 12:11:20;;;;;;;;;;;;;;;29.43;31.63;99587.69;6243068;23;19911;-76
2022/07/10 12:13:46;;;;;;;;;;;;;;;29.48;32.80;99582.28;6241760;23;20006;-75
2022/07/10 12:16:12;;;;;;;;;;;;;;;29.48;32.77;99576.84;6241673;23;19991;-75
2022/07/10 12:18:38;;;;;;;;;;;;;;;29.80;33.80;99579.41;6242250;23;19935;-74
2022/07/10 12:21:04;;;;;;;;;;;;;;;29.96;33.87;99561.25;6241368;23;19911;-75
2022/07/10 12:23:30;;;;;;;;;;;;;;;30.12;33.41;99573.78;6215343;23;19990;-75
2022/07/10 12:25:56;;;;;;;;;;;;;;;30.22;34.05;99568.34;6241902;23;19981;-74
2022/07/10 12:28:21;;;;;;;;;;;;;;;30.42;33.70;99562.09;6241663;23;19919;-74
2022/07/10 12:30:49;;;;;;;;;;;;;;;30.51;33.40;99569.47;6241632;23;20011;-74
2022/07/10 12:33:18;;;;;;;;;;;;;;;30.54;33.41;99561.88;6241839;23;20020;-75
2022/07/10 12:35:46;;;;;;;;;;;;;;;30.68;33.20;99560.22;6241712;23;19938;-73
2022/07/10 12:38:21;;;;;;;;;;;;;;;30.98;32.89;99556.63;6241585;23;19908;-74
2022/07/10 12:40:47;;;;;;;;;;;;;;;31.08;32.92;99557.47;6241699;23;19911;-75
2022/07/10 12:43:23;;;;;;;;;;;;;;;31.09;32.49;99552.81;6214733;23;19912;-74
2022/07/10 12:46:07;;;;;;;;;;;;;;;31.55;32.25;99553.47;6241296;23;19912;-74
2022/07/10 12:48:33;;;;;;;;;;;;;;;31.85;31.89;99549.78;6241707;23;19994;-74
2022/07/10 12:51:18;;;;;;;;;;;;;;;32.13;31.34;99553.72;6241241;23;19985;-74
2022/07/10 12:53:47;;;;;;;;;;;;;;;32.57;31.03;99545.44;6241826;23;20351;-75
2022/07/10 12:56:32;;;;;;;;;;;;;;;32.84;30.20;99541.09;6241701;23;19918;-75
2022/07/10 12:58:58;;;;;;;;;;;;;;;33.28;30.17;99537.38;6241401;23;20332;-74
2022/07/10 13:01:24;;;;;;;;;;;;;;;33.60;29.13;99548.44;6241712;23;19919;-74
2022/07/10 13:03:57;;;;;;;;;;;;;;;33.92;28.75;99547.75;6241512;23;19911;-74
2022/07/10 13:06:29;;;;;;;;;;;;;;;34.36;27.91;99539.13;6241639;23;19911;-75
2022/07/10 13:08:55;;;;;;;;;;;;;;;34.74;26.48;99542.63;6241516;23;20018;-74
2022/07/10 13:11:21;;;;;;;;;;;;;;;34.81;26.37;99539.50;6241701;23;19947;-75
2022/07/10 13:13:47;;;;;;;;;;;;;;;34.66;26.58;99531.50;6214661;23;20243;-75
2022/07/10 13:16:12;;;;;;;;;;;;;;;34.83;26.92;99521.59;6241173;23;19973;-74
2022/07/10 13:18:38;;;;;;;;;;;;;;;34.91;26.53;99522.84;6241337;23;19959;-74
2022/07/10 13:21:03;;;;;;;;;;;;;;;35.36;26.31;99525.78;6241087;23;19912;-75
2022/07/10 13:23:29;;;;;;;;;;;;;;;35.35;25.03;99513.19;6241566;23;19911;-75
2022/07/10 13:25:55;;;;;;;;;;;;;;;35.66;25.57;99516.91;6241107;23;19912;-75
2022/07/10 13:28:20;;;;;;;;;;;;;;;35.88;24.42;99514.22;6241415;23;19946;-74
2022/07/10 13:30:46;;;;;;;;;;;;;;;35.91;24.00;99508.13;6241440;23;19911;-74
2022/07/10 13:33:12;;;;;;;;;;;;;;;35.94;24.28;99512.97;6241054;23;19939;-74